Time;durP1;ratioP1;P1;durP2;ratioP2;P2;SDS_P1;SDS_P2;PMS_P1;PMS_P2;Temp;Humidity;BMP_temperature;BMP_pressure;BME280_temperature;BME280_humidity;BME280_pressure;Samples;Min_cycle;Max_cycle;Signal;HPM_P1;HPM_P2
2023/08/21 00:00:17;;;;;;;10.48;2.40;;;26.70;75.40;;;;;;7382363;19;20037;-78
2023/08/21 00:02:46;;;;;;;6.50;1.90;;;26.60;76.30;;;;;;7381537;19;20014;-77
2023/08/21 00:05:17;;;;;;;5.45;1.90;;;26.60;75.70;;;;;;7405349;19;20010;-77
2023/08/21 00:07:50;;;;;;;8.32;2.10;;;26.50;75.60;;;;;;7380370;19;20405;-77
2023/08/21 00:10:19;;;;;;;7.88;1.73;;;26.60;75.90;;;;;;7380638;19;20369;-76
2023/08/21 00:12:48;;;;;;;8.35;1.90;;;26.60;75.70;;;;;;7380400;19;20014;-77
2023/08/21 00:15:16;;;;;;;8.27;1.98;;;26.60;75.80;;;;;;7379995;19;19999;-77
2023/08/21 00:17:45;;;;;;;10.13;1.92;;;26.60;75.80;;;;;;7381011;19;20014;-77
2023/08/21 00:20:17;;;;;;;9.60;1.90;;;26.60;75.90;;;;;;7402271;19;20019;-77
2023/08/21 00:22:46;;;;;;;8.13;1.92;;;26.60;75.40;;;;;;7380813;19;20078;-78
2023/08/21 00:25:15;;;;;;;6.20;1.90;;;26.50;75.40;;;;;;7380049;19;20062;-78
2023/08/21 00:27:43;;;;;;;11.07;2.13;;;26.50;75.50;;;;;;7380194;19;20066;-77
2023/08/21 00:30:14;;;;;;;6.40;2.00;;;26.40;75.90;;;;;;7380284;19;20014;-76
2023/08/21 00:32:43;;;;;;;11.68;2.17;;;26.40;75.80;;;;;;7379822;19;20059;-78
2023/08/21 00:35:14;;;;;;;6.22;1.70;;;26.30;75.90;;;;;;7403282;19;20007;-77
2023/08/21 00:37:46;;;;;;;6.47;1.95;;;26.30;76.00;;;;;;7380505;19;20027;-78
2023/08/21 00:40:16;;;;;;;6.93;2.10;;;26.30;75.90;;;;;;7378362;19;20377;-78
2023/08/21 00:42:44;;;;;;;9.88;2.08;;;26.20;75.90;;;;;;7379046;19;20010;-77
2023/08/21 00:45:13;;;;;;;6.22;1.83;;;26.20;76.10;;;;;;7379955;19;20085;-78
2023/08/21 00:47:43;;;;;;;13.38;2.03;;;26.20;76.10;;;;;;7388503;19;20014;-78
2023/08/21 00:50:13;;;;;;;5.22;1.55;;;26.20;76.30;;;;;;7401159;19;20355;-77
2023/08/21 00:52:45;;;;;;;10.82;1.70;;;26.20;76.20;;;;;;7385259;19;20042;-77
2023/08/21 00:55:16;;;;;;;10.82;1.80;;;26.20;75.80;;;;;;7402036;19;20025;-77
2023/08/21 00:57:45;;;;;;;13.88;2.35;;;26.20;75.60;;;;;;7395804;19;20070;-77
2023/08/21 01:00:15;;;;;;;9.00;2.03;;;26.20;75.80;;;;;;7385307;19;20018;-76
2023/08/21 01:02:44;;;;;;;6.40;1.55;;;26.10;75.70;;;;;;7388840;19;20020;-77
2023/08/21 01:05:11;;;;;;;8.88;1.73;;;26.00;75.60;;;;;;7408793;19;20010;-77
2023/08/21 01:07:51;;;;;;;8.35;2.10;;;26.00;75.80;;;;;;7387384;19;20003;-77
2023/08/21 01:10:29;;;;;;;16.17;2.03;;;25.90;76.00;;;;;;7384610;19;20019;-77
2023/08/21 01:13:02;;;;;;;10.48;2.10;;;26.00;76.30;;;;;;7385308;19;20377;-77
2023/08/21 01:15:31;;;;;;;8.10;1.90;;;25.90;76.00;;;;;;7385313;19;20023;-77
2023/08/21 01:18:01;;;;;;;9.77;1.80;;;25.90;75.80;;;;;;7387593;19;20027;-77
2023/08/21 01:20:31;;;;;;;9.75;2.13;;;25.90;76.10;;;;;;7406232;19;20007;-77
2023/08/21 01:23:07;;;;;;;10.30;1.80;;;25.80;76.00;;;;;;7388139;19;20035;-77
2023/08/21 01:25:38;;;;;;;11.05;2.20;;;25.80;76.00;;;;;;7385160;19;20019;-77
2023/08/21 01:28:07;;;;;;;9.95;2.13;;;25.80;76.10;;;;;;7386122;19;20010;-76
2023/08/21 01:30:38;;;;;;;12.63;2.00;;;25.70;75.90;;;;;;7383582;19;20003;-77
2023/08/21 01:33:12;;;;;;;6.28;2.00;;;25.70;76.00;;;;;;7386440;19;20392;-76
2023/08/21 01:35:42;;;;;;;8.02;1.80;;;25.70;76.30;;;;;;7402993;19;20035;-77
2023/08/21 01:38:11;;;;;;;6.25;1.67;;;25.70;76.30;;;;;;7407534;19;20014;-77
2023/08/21 01:40:45;;;;;;;6.55;2.00;;;25.70;76.80;;;;;;7383399;19;20003;-77
2023/08/21 01:43:13;;;;;;;14.13;2.42;;;25.70;75.80;;;;;;7383840;19;20010;-76
2023/08/21 01:45:42;;;;;;;10.73;1.77;;;25.70;76.00;;;;;;7385610;19;20016;-76
2023/08/21 01:48:11;;;;;;;10.85;1.92;;;25.60;77.00;;;;;;7383284;19;20011;-76
2023/08/21 01:50:40;;;;;;;13.00;2.13;;;25.60;76.40;;;;;;7406172;19;20034;-77
2023/08/21 01:53:08;;;;;;;7.95;1.88;;;25.60;76.00;;;;;;7385032;19;20002;-77
2023/08/21 01:55:37;;;;;;;8.90;1.80;;;25.60;76.30;;;;;;7385266;19;20002;-77
2023/08/21 01:58:08;;;;;;;9.07;2.30;;;25.60;76.10;;;;;;7384466;19;20237;-77
2023/08/21 02:00:37;;;;;;;12.85;1.77;;;25.60;76.30;;;;;;7383959;19;20026;-78
2023/08/21 02:03:06;;;;;;;10.57;1.98;;;25.50;76.20;;;;;;7386201;19;20023;-78
2023/08/21 02:05:41;;;;;;;15.25;2.30;;;25.50;76.00;;;;;;7404295;19;20007;-78
2023/08/21 02:08:14;;;;;;;17.45;2.28;;;25.50;76.10;;;;;;7386623;19;20402;-78
2023/08/21 02:10:51;;;;;;;6.88;1.98;;;25.40;76.20;;;;;;7385312;19;20060;-78
2023/08/21 02:13:22;;;;;;;6.65;1.73;;;25.40;76.50;;;;;;7385670;19;20027;-76
2023/08/21 02:15:51;;;;;;;9.68;2.05;;;25.40;76.70;;;;;;7383998;19;19999;-77
2023/08/21 02:18:20;;;;;;;9.52;2.15;;;25.40;77.30;;;;;;7387341;19;20011;-78
2023/08/21 02:20:51;;;;;;;5.57;1.63;;;25.40;77.80;;;;;;7384871;19;20216;-78
2023/08/21 02:23:19;;;;;;;7.15;1.90;;;25.40;78.20;;;;;;7403827;19;20074;-77
2023/08/21 02:25:48;;;;;;;9.82;1.98;;;25.40;78.20;;;;;;7384474;19;20007;-77
2023/08/21 02:28:17;;;;;;;8.50;1.90;;;25.40;78.00;;;;;;7382985;19;20007;-78
2023/08/21 02:30:49;;;;;;;6.65;1.60;;;25.40;77.60;;;;;;7386636;19;20019;-78
2023/08/21 02:33:17;;;;;;;11.07;1.73;;;25.40;77.30;;;;;;7385109;19;20010;-77
2023/08/21 02:35:46;;;;;;;3.53;1.55;;;25.40;77.10;;;;;;7383183;19;20288;-77
2023/08/21 02:38:15;;;;;;;10.73;2.42;;;25.30;77.00;;;;;;7406593;19;20011;-78
2023/08/21 02:40:43;;;;;;;14.73;1.95;;;25.30;76.90;;;;;;7382457;19;20019;-78
2023/08/21 02:43:13;;;;;;;6.60;2.20;;;25.30;77.20;;;;;;7385817;19;19998;-77
2023/08/21 02:45:41;;;;;;;8.80;2.00;;;25.30;77.30;;;;;;7385254;19;20027;-78
2023/08/21 02:48:13;;;;;;;13.15;2.03;;;25.30;77.70;;;;;;7384367;19;20346;-77
2023/08/21 02:50:41;;;;;;;7.07;1.80;;;25.30;78.00;;;;;;7405639;19;20002;-78
2023/08/21 02:53:10;;;;;;;7.85;1.70;;;25.40;78.00;;;;;;7407356;19;20123;-80
2023/08/21 02:55:39;;;;;;;5.45;1.73;;;25.40;78.10;;;;;;7382704;19;20010;-77
2023/08/21 02:58:07;;;;;;;11.05;2.13;;;25.30;77.70;;;;;;7385169;19;20014;-78
2023/08/21 03:00:37;;;;;;;8.32;1.70;;;25.30;78.00;;;;;;7382458;19;20553;-77
2023/08/21 03:03:07;;;;;;;15.98;2.30;;;25.30;77.80;;;;;;7383180;19;20010;-78
2023/08/21 03:05:39;;;;;;;6.85;1.80;;;25.30;77.60;;;;;;7406406;19;20006;-78
2023/08/21 03:08:07;;;;;;;;;;;25.30;77.70;;;;;;7385335;19;20098;-76
2023/08/21 03:10:36;;;;;;;8.63;1.88;;;25.30;77.70;;;;;;7383476;19;19911;-77
2023/08/21 03:13:05;;;;;;;9.07;2.10;;;25.20;77.40;;;;;;7383400;19;20104;-77
2023/08/21 03:15:34;;;;;;;13.05;1.98;;;25.20;78.00;;;;;;7387295;19;20410;-78
2023/08/21 03:18:03;;;;;;;12.60;2.00;;;25.20;78.00;;;;;;7386373;19;20441;-77
2023/08/21 03:20:32;;;;;;;7.88;1.83;;;25.10;77.90;;;;;;7406752;19;20003;-78
2023/08/21 03:23:03;;;;;;;15.15;2.38;;;25.20;78.00;;;;;;7386720;19;20031;-78
2023/08/21 03:25:32;;;;;;;17.25;2.25;;;25.10;78.50;;;;;;7385904;19;20038;-77
2023/08/21 03:28:01;;;;;;;9.43;1.48;;;25.20;79.00;;;;;;7385038;19;20236;-78
2023/08/21 03:30:29;;;;;;;11.73;1.58;;;25.20;79.00;;;;;;7386644;19;20055;-78
2023/08/21 03:32:58;;;;;;;7.25;1.70;;;25.20;78.50;;;;;;7386102;19;20017;-77
2023/08/21 03:35:27;;;;;;;10.18;2.00;;;25.20;77.90;;;;;;7403172;19;20032;-77
2023/08/21 03:37:55;;;;;;;13.50;1.90;;;25.10;78.30;;;;;;7387791;19;20006;-78
2023/08/21 03:40:28;;;;;;;7.95;1.98;;;25.10;78.70;;;;;;7384529;19;20100;-78
2023/08/21 03:42:57;;;;;;;13.25;2.22;;;25.10;78.90;;;;;;7383982;19;20010;-77
2023/08/21 03:45:26;;;;;;;8.75;2.67;;;25.10;78.90;;;;;;7386753;19;20003;-77
2023/08/21 03:47:54;;;;;;;7.57;2.38;;;25.10;79.10;;;;;;7381472;19;20019;-77
2023/08/21 03:50:23;;;;;;;7.22;2.25;;;25.00;79.90;;;;;;7402866;19;20031;-78
2023/08/21 03:52:52;;;;;;;13.48;1.98;;;25.00;79.10;;;;;;7381568;19;20078;-77
2023/08/21 03:55:21;;;;;;;12.40;2.63;;;25.00;79.30;;;;;;7381897;19;19999;-77
2023/08/21 03:57:52;;;;;;;68.65;34.78;;;25.00;79.40;;;;;;7382702;19;20006;-78
2023/08/21 04:00:21;;;;;;;23.00;10.98;;;25.00;79.40;;;;;;7383963;19;20010;-78
2023/08/21 04:02:50;;;;;;;21.27;10.25;;;24.90;79.30;;;;;;7379365;19;20079;-77
2023/08/21 04:05:19;;;;;;;9.80;2.20;;;24.90;79.20;;;;;;7401697;19;20109;-78
2023/08/21 04:07:47;;;;;;;9.73;2.53;;;24.90;78.80;;;;;;7381184;19;20239;-77
2023/08/21 04:10:16;;;;;;;9.02;2.13;;;24.90;78.70;;;;;;7381265;19;20035;-77
2023/08/21 04:12:45;;;;;;;12.65;2.10;;;24.90;78.90;;;;;;7381846;19;20063;-78
2023/08/21 04:15:16;;;;;;;8.90;1.83;;;24.80;79.00;;;;;;7379711;19;20018;-77
2023/08/21 04:17:45;;;;;;;8.57;2.10;;;24.80;79.10;;;;;;7381704;19;20023;-77
2023/08/21 04:20:16;;;;;;;28.80;12.80;;;24.80;79.30;;;;;;7403400;19;20006;-78
2023/08/21 04:22:45;;;;;;;35.42;17.83;;;24.80;79.70;;;;;;7380453;19;19999;-77
2023/08/21 04:25:13;;;;;;;9.40;3.22;;;24.80;79.90;;;;;;7381254;19;20003;-78
2023/08/21 04:27:42;;;;;;;9.05;2.42;;;24.70;80.00;;;;;;7380409;19;20007;-77
2023/08/21 04:30:12;;;;;;;10.57;2.03;;;24.70;80.00;;;;;;7380548;19;20023;-77
2023/08/21 04:32:43;;;;;;;11.70;2.30;;;24.70;79.70;;;;;;7402812;19;20062;-78
2023/08/21 04:35:12;;;;;;;;;;;24.70;79.70;;;;;;7385478;19;20002;-77
2023/08/21 04:37:45;;;;;;;9.70;2.33;;;24.70;80.10;;;;;;7390852;19;19914;-78
2023/08/21 04:40:15;;;;;;;9.85;2.10;;;24.70;80.80;;;;;;7388185;19;20388;-78
2023/08/21 04:42:43;;;;;;;9.88;2.22;;;24.60;80.20;;;;;;7380118;19;20205;-77
2023/08/21 04:45:12;;;;;;;12.55;2.33;;;24.60;80.10;;;;;;7380448;19;20014;-77
2023/08/21 04:47:44;;;;;;;11.15;2.38;;;24.60;79.80;;;;;;7398850;19;20010;-78
2023/08/21 04:50:12;;;;;;;;;;;24.60;79.80;;;;;;7404160;19;20062;-76
2023/08/21 04:52:41;;;;;;;12.95;2.45;;;24.60;80.10;;;;;;7380888;19;20186;-77
2023/08/21 04:55:11;;;;;;;8.80;2.15;;;24.50;80.10;;;;;;7379317;19;20019;-77
2023/08/21 04:57:39;;;;;;;13.57;2.05;;;24.50;80.20;;;;;;7379067;19;20006;-77
2023/08/21 05:00:10;;;;;;;12.02;2.50;;;24.40;80.30;;;;;;7379387;19;20006;-77
2023/08/21 05:02:39;;;;;;;10.50;2.17;;;24.40;80.40;;;;;;7400105;19;20020;-78
2023/08/21 05:05:11;;;;;;;8.77;2.03;;;24.40;80.30;;;;;;7379207;19;20010;-77
2023/08/21 05:07:39;;;;;;;13.43;2.00;;;24.40;80.20;;;;;;7381520;19;20016;-76
2023/08/21 05:10:10;;;;;;;10.30;2.00;;;24.40;80.40;;;;;;7378099;19;20411;-77
2023/08/21 05:12:38;;;;;;;10.95;2.47;;;24.40;80.50;;;;;;7379074;19;20080;-77
2023/08/21 05:15:08;;;;;;;11.50;2.20;;;24.40;80.80;;;;;;7377862;19;20007;-76
2023/08/21 05:17:36;;;;;;;7.95;2.20;;;24.40;81.00;;;;;;7403151;19;20011;-78
2023/08/21 05:20:06;;;;;;;7.90;2.38;;;24.40;81.00;;;;;;7377482;19;20006;-76
2023/08/21 05:22:38;;;;;;;60.67;31.98;;;24.40;80.90;;;;;;7378722;19;20011;-78
2023/08/21 05:25:07;;;;;;;;;;;24.40;81.00;;;;;;7381561;19;20014;-77
2023/08/21 05:27:36;;;;;;;17.00;6.53;;;24.40;80.80;;;;;;7379381;19;19939;-78
2023/08/21 05:30:05;;;;;;;10.52;4.07;;;24.40;81.00;;;;;;7379057;19;20011;-77
2023/08/21 05:32:34;;;;;;;6.90;2.28;;;24.50;81.10;;;;;;7399131;19;20082;-77
2023/08/21 05:35:03;;;;;;;8.45;3.10;;;24.40;81.00;;;;;;7378783;19;20262;-78
2023/08/21 05:37:32;;;;;;;10.85;2.80;;;24.40;80.90;;;;;;7380325;19;20003;-78
2023/08/21 05:40:03;;;;;;;14.75;2.45;;;24.40;80.20;;;;;;7383746;19;20031;-78
2023/08/21 05:42:31;;;;;;;;;;;24.40;80.20;;;;;;7388731;19;20015;-78
2023/08/21 05:45:00;;;;;;;4.85;2.47;;;24.30;80.10;;;;;;7389457;19;19932;-78
2023/08/21 05:47:29;;;;;;;7.40;2.40;;;24.30;81.20;;;;;;7409074;19;20078;-77
2023/08/21 05:49:58;;;;;;;11.80;2.28;;;24.30;80.70;;;;;;7383991;19;20020;-76
2023/08/21 05:52:26;;;;;;;12.13;2.88;;;24.30;80.70;;;;;;7385710;19;20256;-76
2023/08/21 05:54:55;;;;;;;9.52;2.63;;;24.30;80.10;;;;;;7384549;19;20003;-77
2023/08/21 05:57:26;;;;;;;7.75;2.25;;;24.30;80.40;;;;;;7384127;19;20007;-77
2023/08/21 05:59:55;;;;;;;;;;;24.30;80.80;;;;;;7383001;19;20070;-77
2023/08/21 06:02:23;;;;;;;10.77;2.50;;;24.40;80.20;;;;;;7405341;19;20251;-77
2023/08/21 06:04:52;;;;;;;13.60;2.40;;;24.40;80.00;;;;;;7385832;19;20007;-77
2023/08/21 06:07:21;;;;;;;11.60;2.92;;;24.40;80.00;;;;;;7387669;19;20003;-78
2023/08/21 06:09:50;;;;;;;15.50;2.40;;;24.40;80.20;;;;;;7387379;19;20058;-77
2023/08/21 06:12:18;;;;;;;8.00;2.53;;;24.50;80.80;;;;;;7386189;19;20010;-77
2023/08/21 06:14:50;;;;;;;10.55;2.33;;;24.50;79.80;;;;;;7384426;19;20014;-77
2023/08/21 06:17:18;;;;;;;;;;;24.50;79.40;;;;;;7404383;19;20010;-78
2023/08/21 06:19:47;;;;;;;10.38;2.13;;;24.60;80.00;;;;;;7382870;19;19924;-77
2023/08/21 06:22:15;;;;;;;7.47;1.95;;;24.60;79.70;;;;;;7383679;19;20078;-77
2023/08/21 06:24:44;;;;;;;10.52;2.25;;;24.70;79.70;;;;;;7383970;19;20066;-77
2023/08/21 06:27:13;;;;;;;7.72;2.28;;;24.70;79.40;;;;;;7384288;19;20007;-77
2023/08/21 06:29:42;;;;;;;10.55;2.35;;;24.70;78.90;;;;;;7396578;19;20006;-77
2023/08/21 06:32:13;;;;;;;9.80;2.20;;;24.80;78.90;;;;;;7404880;19;20003;-77
2023/08/21 06:34:42;;;;;;;;;;;24.90;79.20;;;;;;7384900;19;20011;-77
2023/08/21 06:37:10;;;;;;;7.00;2.00;;;24.90;79.10;;;;;;7387019;19;19911;-78
2023/08/21 06:39:39;;;;;;;8.20;2.00;;;25.00;78.80;;;;;;7385127;19;20353;-77
2023/08/21 06:42:08;;;;;;;12.70;1.85;;;25.10;78.80;;;;;;7382613;19;20007;-77
2023/08/21 06:44:37;;;;;;;5.13;1.77;;;25.10;78.30;;;;;;7406137;19;20002;-77
2023/08/21 06:47:05;;;;;;;9.13;1.90;;;25.10;78.30;;;;;;7384808;19;20023;-78
2023/08/21 06:49:37;;;;;;;6.90;1.88;;;25.10;78.30;;;;;;7384311;19;20066;-77
2023/08/21 06:52:06;;;;;;;12.10;2.30;;;25.10;77.60;;;;;;7387369;19;20007;-81
2023/08/21 06:54:35;;;;;;;8.95;1.80;;;25.10;77.80;;;;;;7388846;19;20055;-80
2023/08/21 06:57:04;;;;;;;11.98;2.22;;;25.10;77.00;;;;;;7393508;19;20018;-79
2023/08/21 06:59:35;;;;;;;6.10;1.77;;;25.20;76.70;;;;;;7412848;19;20026;-80
2023/08/21 07:02:04;;;;;;;11.55;1.88;;;25.20;76.90;;;;;;7386070;19;20218;-82
2023/08/21 07:04:35;;;;;;;5.60;1.70;;;25.20;76.70;;;;;;7386769;19;20006;-80
2023/08/21 07:07:04;;;;;;;7.53;1.92;;;25.30;76.60;;;;;;7387444;19;20002;-80
2023/08/21 07:09:33;;;;;;;6.72;1.70;;;25.40;76.30;;;;;;7386422;19;20023;-79
2023/08/21 07:12:02;;;;;;;9.60;1.98;;;25.40;75.80;;;;;;7386178;19;20020;-79
2023/08/21 07:14:31;;;;;;;9.07;1.88;;;25.40;75.60;;;;;;7407868;19;20007;-78
2023/08/21 07:17:00;;;;;;;11.32;2.10;;;25.50;75.30;;;;;;7383422;19;20015;-78
2023/08/21 07:19:28;;;;;;;6.50;1.75;;;25.40;75.20;;;;;;7383454;19;20020;-80
2023/08/21 07:22:00;;;;;;;12.18;2.00;;;25.50;75.00;;;;;;7382804;19;20002;-80
2023/08/21 07:24:29;;;;;;;5.03;1.52;;;25.50;74.40;;;;;;7384814;19;20389;-80
2023/08/21 07:26:57;;;;;;;12.43;2.10;;;25.50;74.40;;;;;;7384299;19;20019;-80
2023/08/21 07:29:26;;;;;;;7.15;1.85;;;25.50;74.60;;;;;;7403998;19;20027;-80
2023/08/21 07:31:55;;;;;;;8.02;1.58;;;25.50;74.10;;;;;;7382074;19;20231;-77
2023/08/21 07:34:23;;;;;;;12.88;1.85;;;25.50;74.40;;;;;;7384053;19;20023;-78
2023/08/21 07:37:04;;;;;;;8.38;1.80;;;25.50;74.60;;;;;;7382760;19;20012;-80
2023/08/21 07:39:35;;;;;;;14.13;1.98;;;25.60;75.20;;;;;;7384283;19;20002;-78
2023/08/21 07:42:04;;;;;;;;;;;25.60;75.00;;;;;;7382404;19;20362;-76
2023/08/21 07:44:32;;;;;;;8.90;1.70;;;25.60;73.90;;;;;;7401775;19;20218;-77
2023/08/21 07:47:01;;;;;;;4.68;1.60;;;25.60;74.50;;;;;;7379929;19;20300;-75
2023/08/21 07:49:33;;;;;;;10.65;2.47;;;25.60;74.50;;;;;;7381144;19;20565;-80
2023/08/21 07:52:03;;;;;;;9.25;1.90;;;25.50;74.40;;;;;;7384098;19;20010;-79
2023/08/21 07:54:38;;;;;;;12.75;1.80;;;25.50;74.70;;;;;;7383716;19;20014;-79
2023/08/21 07:57:07;;;;;;;10.20;2.00;;;25.50;74.40;;;;;;7387147;19;20027;-80
2023/08/21 07:59:38;;;;;;;12.15;2.00;;;25.50;74.40;;;;;;7404981;19;20014;-78
2023/08/21 08:02:07;;;;;;;7.10;2.08;;;25.50;74.40;;;;;;7382950;19;20014;-79
2023/08/21 08:04:37;;;;;;;14.48;2.40;;;25.40;73.90;;;;;;7378986;19;20094;-78
2023/08/21 08:07:05;;;;;;;13.82;2.03;;;25.40;74.60;;;;;;7382188;19;20010;-78
2023/08/21 08:09:37;;;;;;;14.60;2.30;;;25.50;74.90;;;;;;7382076;19;20006;-78
2023/08/21 08:12:06;;;;;;;11.77;2.17;;;25.50;74.40;;;;;;7380479;19;20014;-76
2023/08/21 08:14:35;;;;;;;10.45;2.03;;;25.60;74.40;;;;;;7401377;19;20007;-77
2023/08/21 08:17:04;;;;;;;7.80;2.05;;;25.60;74.20;;;;;;7378770;19;20007;-76
2023/08/21 08:19:33;;;;;;;12.60;2.30;;;25.70;74.10;;;;;;7379222;19;20007;-76
2023/08/21 08:22:01;;;;;;;27.10;2.17;;;25.70;74.30;;;;;;7380090;19;20027;-76
2023/08/21 08:24:30;;;;;;;13.75;2.10;;;25.80;74.40;;;;;;7379529;19;20016;-77
2023/08/21 08:27:01;;;;;;;8.05;1.88;;;25.90;74.00;;;;;;7379153;19;20358;-77
2023/08/21 08:29:30;;;;;;;13.30;4.35;;;25.90;74.20;;;;;;7406387;19;20007;-76
2023/08/21 08:31:59;;;;;;;10.68;2.70;;;25.90;73.40;;;;;;7380868;19;20058;-77
2023/08/21 08:34:28;;;;;;;5.82;1.83;;;26.00;73.50;;;;;;7379057;19;20405;-75
2023/08/21 08:36:56;;;;;;;7.97;2.10;;;25.90;73.50;;;;;;7384173;19;20006;-77
2023/08/21 08:39:25;;;;;;;10.63;2.30;;;26.00;73.60;;;;;;7379490;19;20031;-77
2023/08/21 08:42:00;;;;;;;15.00;1.98;;;26.10;73.50;;;;;;7379364;19;20330;-74
2023/08/21 08:44:33;;;;;;;10.70;2.00;;;26.10;73.20;;;;;;7398287;19;20010;-77
2023/08/21 08:47:03;;;;;;;9.80;2.08;;;26.20;73.30;;;;;;7378189;19;20063;-75
2023/08/21 08:49:32;;;;;;;13.90;2.37;;;26.20;73.50;;;;;;7378172;19;20386;-75
2023/08/21 08:52:03;;;;;;;15.10;2.13;;;26.30;72.80;;;;;;7379518;19;20068;-75
2023/08/21 08:54:33;;;;;;;7.22;1.85;;;26.20;72.70;;;;;;7378689;19;20222;-75
2023/08/21 08:57:01;;;;;;;7.53;1.45;;;26.10;71.90;;;;;;7379947;19;20015;-77
2023/08/21 08:59:36;;;;;;;10.32;1.88;;;26.10;72.30;;;;;;7399548;19;20024;-75
2023/08/21 09:02:05;;;;;;;10.00;2.03;;;26.10;72.60;;;;;;7377875;19;20023;-74
2023/08/21 09:04:33;;;;;;;11.32;2.10;;;26.20;73.00;;;;;;7377227;19;20006;-75
2023/08/21 09:07:12;;;;;;;14.68;2.17;;;26.20;72.60;;;;;;7377842;19;20422;-74
2023/08/21 09:09:41;;;;;;;11.00;2.08;;;26.10;71.70;;;;;;7377395;19;20398;-78
2023/08/21 09:12:13;;;;;;;12.70;1.80;;;26.20;72.40;;;;;;7378029;19;20010;-75
2023/08/21 09:14:46;;;;;;;7.68;1.95;;;26.20;72.80;;;;;;7407170;19;20010;-79
2023/08/21 09:17:15;;;;;;;11.63;1.77;;;26.20;72.40;;;;;;7414575;19;20002;-78
2023/08/21 09:19:44;;;;;;;8.30;2.13;;;26.20;72.60;;;;;;7395748;19;20005;-79
2023/08/21 09:22:18;;;;;;;9.98;2.28;;;26.30;72.20;;;;;;7394099;19;20478;-78
2023/08/21 09:25:06;;;;;;;16.70;3.80;;;26.10;72.30;;;;;;7386429;19;20010;-77
2023/08/21 09:27:35;;;;;;;9.85;2.13;;;26.10;72.70;;;;;;7384690;19;20022;-77
2023/08/21 09:30:08;;;;;;;10.82;1.90;;;26.10;72.20;;;;;;7386350;19;20054;-77
2023/08/21 09:32:55;;;;;;;14.27;2.17;;;26.20;72.30;;;;;;7408312;19;20034;-76
2023/08/21 09:35:24;;;;;;;8.25;2.03;;;26.10;72.00;;;;;;7387394;19;20062;-77
2023/08/21 09:37:54;;;;;;;12.30;1.98;;;26.10;71.50;;;;;;7383870;19;20078;-75
2023/08/21 09:40:23;;;;;;;14.07;1.75;;;26.20;72.10;;;;;;7384457;19;20152;-77
2023/08/21 09:42:55;;;;;;;12.15;1.77;;;26.20;71.50;;;;;;7385040;19;20102;-75
2023/08/21 09:45:28;;;;;;;11.38;2.45;;;26.20;71.10;;;;;;7383497;19;20003;-76
2023/08/21 09:47:57;;;;;;;15.10;1.80;;;26.30;71.60;;;;;;7384098;19;20271;-74
2023/08/21 09:50:25;;;;;;;13.02;1.88;;;26.30;71.80;;;;;;7405496;19;20418;-73
2023/08/21 09:52:55;;;;;;;16.45;1.75;;;26.40;71.60;;;;;;7383101;19;20276;-74
2023/08/21 09:55:25;;;;;;;12.23;3.17;;;26.30;71.30;;;;;;7383751;19;20007;-74
2023/08/21 09:57:58;;;;;;;9.70;1.92;;;26.20;71.20;;;;;;7384278;19;20031;-74
2023/08/21 10:00:34;;;;;;;7.85;2.17;;;26.20;71.10;;;;;;7385277;19;20101;-79
2023/08/21 10:03:05;;;;;;;7.63;1.60;;;26.30;71.60;;;;;;7386486;19;20006;-78
2023/08/21 10:05:34;;;;;;;15.40;1.90;;;26.40;71.50;;;;;;7407985;19;20015;-80
2023/08/21 10:08:05;;;;;;;10.95;1.80;;;26.40;71.10;;;;;;7385201;19;20278;-78
2023/08/21 10:10:35;;;;;;;8.15;1.50;;;26.20;69.80;;;;;;7386550;19;20078;-79
2023/08/21 10:13:11;;;;;;;10.55;2.08;;;26.30;70.60;;;;;;7384136;19;20042;-77
2023/08/21 10:15:45;;;;;;;13.68;2.10;;;26.40;70.40;;;;;;7385836;19;20031;-77
2023/08/21 10:18:26;;;;;;;5.50;1.50;;;26.50;70.20;;;;;;7382398;19;20006;-76
2023/08/21 10:20:55;;;;;;;8.82;2.22;;;26.60;70.20;;;;;;7384689;19;20070;-75
2023/08/21 10:23:32;;;;;;;6.85;2.25;;;26.70;69.40;;;;;;7406308;19;20351;-77
2023/08/21 10:26:04;;;;;;;5.20;1.45;;;26.70;68.90;;;;;;7397583;19;20013;-78
2023/08/21 10:28:45;;;;;;;6.85;1.83;;;26.80;68.50;;;;;;7394150;19;20261;-75
2023/08/21 10:31:44;;;;;;;5.70;1.85;;;26.80;68.50;;;;;;7396745;19;20263;-78
2023/08/21 10:34:25;;;;;;;8.60;2.00;;;26.90;68.90;;;;;;7388482;19;20115;-83
2023/08/21 10:37:21;;;;;;;6.68;1.75;;;26.90;67.80;;;;;;7386428;19;20076;-81
2023/08/21 10:40:02;;;;;;;9.02;1.80;;;26.90;68.00;;;;;;7385727;19;20010;-82
2023/08/21 10:52:34;;;;;;;4.93;1.55;;;27.10;67.10;;;;;;7408096;19;20072;-80
2023/08/21 10:55:14;;;;;;;10.00;1.75;;;27.10;67.20;;;;;;7389264;19;20260;-81
2023/08/21 10:57:44;;;;;;;10.25;1.80;;;27.10;67.50;;;;;;7386628;19;20021;-80
2023/08/21 11:00:17;;;;;;;6.35;1.42;;;27.10;68.30;;;;;;7390641;19;20010;-80
2023/08/21 11:02:56;;;;;;;3.67;1.30;;;27.10;64.70;;;;;;7390283;19;20377;-79
2023/08/21 11:05:27;;;;;;;11.45;1.85;;;27.20;64.70;;;;;;7408710;19;20425;-78
2023/08/21 11:07:58;;;;;;;10.57;1.92;;;27.20;65.40;;;;;;7384792;19;20002;-79
2023/08/21 11:10:36;;;;;;;3.50;1.30;;;27.30;65.30;;;;;;7388003;19;20010;-79
2023/08/21 11:13:10;;;;;;;9.00;1.60;;;27.40;65.70;;;;;;7389613;19;20011;-79
2023/08/21 11:18:55;;;;;;;11.77;1.60;;;27.50;64.70;;;;;;7381940;19;20024;-79
2023/08/21 11:21:29;;;;;;;8.40;1.60;;;27.50;65.10;;;;;;7381178;19;20024;-77
2023/08/21 11:23:57;;;;;;;10.43;1.30;;;27.60;65.50;;;;;;7382078;19;20017;-76
2023/08/21 11:26:30;;;;;;;6.18;1.40;;;27.70;64.70;;;;;;7403263;19;20010;-77
2023/08/21 11:29:02;;;;;;;14.02;1.75;;;27.70;64.70;;;;;;7382356;19;19999;-78
2023/08/21 11:31:31;;;;;;;12.88;1.83;;;27.80;63.80;;;;;;7384885;19;20006;-77
2023/08/21 11:34:00;;;;;;;12.65;1.50;;;27.70;64.10;;;;;;7383124;19;20098;-78
2023/08/21 11:36:31;;;;;;;6.32;1.58;;;27.70;64.80;;;;;;7382650;19;19999;-77
2023/08/21 11:39:05;;;;;;;4.88;1.40;;;27.80;65.20;;;;;;7382271;19;20014;-78
2023/08/21 11:41:34;;;;;;;10.65;1.55;;;27.90;65.50;;;;;;7405205;19;20015;-77
2023/08/21 11:44:11;;;;;;;6.07;1.50;;;28.00;65.50;;;;;;7379635;19;20316;-78
2023/08/21 11:46:41;;;;;;;8.98;1.77;;;28.10;64.30;;;;;;7382874;19;20009;-76
2023/08/21 11:49:09;;;;;;;10.38;3.78;;;28.20;64.10;;;;;;7381370;19;20049;-78
2023/08/21 11:51:43;;;;;;;13.95;2.60;;;28.20;64.40;;;;;;7383062;19;20052;-77
2023/08/21 11:54:12;;;;;;;5.95;1.65;;;28.20;65.50;;;;;;7383250;19;19999;-77
2023/08/21 11:56:42;;;;;;;7.72;1.33;;;28.30;66.00;;;;;;7404113;19;20020;-77
2023/08/21 11:59:12;;;;;;;8.23;1.50;;;28.40;64.20;;;;;;7380739;19;20009;-77
2023/08/21 12:01:42;;;;;;;7.40;1.38;;;28.40;64.60;;;;;;7381338;19;20374;-79
2023/08/21 12:04:18;;;;;;;6.32;1.75;;;28.40;63.10;;;;;;7380300;19;20010;-78
2023/08/21 12:06:49;;;;;;;8.25;1.42;;;28.40;62.70;;;;;;7382034;19;20027;-78
2023/08/21 12:09:19;;;;;;;9.15;1.70;;;28.50;63.00;;;;;;7380360;19;20023;-77
2023/08/21 12:11:47;;;;;;;6.25;1.27;;;28.50;63.80;;;;;;7381890;19;20014;-77
2023/08/21 12:14:16;;;;;;;6.43;1.40;;;28.50;63.80;;;;;;7400076;19;20371;-78
2023/08/21 12:16:46;;;;;;;6.53;1.50;;;28.60;62.80;;;;;;7381083;19;20397;-78
2023/08/21 12:19:15;;;;;;;12.80;1.52;;;28.60;63.30;;;;;;7387939;19;20013;-78
2023/08/21 12:21:44;;;;;;;7.80;1.50;;;28.70;63.00;;;;;;7398608;19;20011;-78
2023/08/21 12:24:15;;;;;;;4.43;1.15;;;28.70;63.00;;;;;;7400642;19;20031;-79
2023/08/21 12:26:44;;;;;;;5.95;1.20;;;28.80;62.50;;;;;;7389267;19;20030;-78
2023/08/21 12:29:15;;;;;;;4.15;1.45;;;28.80;62.40;;;;;;7409398;19;20020;-77
2023/08/21 12:31:44;;;;;;;4.63;1.33;;;28.80;62.50;;;;;;7382626;19;20255;-77
2023/08/21 12:34:19;;;;;;;6.22;1.33;;;28.90;62.40;;;;;;7380921;19;20007;-79
2023/08/21 12:36:47;;;;;;;4.93;1.42;;;28.70;61.60;;;;;;7381651;19;20349;-77
2023/08/21 12:39:19;;;;;;;2.92;1.33;;;28.70;62.60;;;;;;7383993;19;20026;-78
2023/08/21 12:41:50;;;;;;;5.30;1.55;;;28.80;63.50;;;;;;7383071;19;20011;-80
2023/08/21 12:47:38;;;;;;;7.85;1.95;;;29.00;63.00;;;;;;7410936;19;20021;-81
2023/08/21 12:50:23;;;;;;;6.85;1.48;;;29.10;64.50;;;;;;7381064;19;20015;-82
2023/08/21 12:53:02;;;;;;;5.18;1.48;;;29.30;65.10;;;;;;7381955;19;20006;-81
2023/08/21 12:55:34;;;;;;;4.38;1.50;;;29.40;64.10;;;;;;7382464;19;20021;-79
2023/08/21 12:58:03;;;;;;;9.70;1.63;;;29.50;63.60;;;;;;7382890;19;20260;-79
2023/08/21 13:00:32;;;;;;;10.43;1.48;;;29.60;62.90;;;;;;7382551;19;20031;-80
2023/08/21 13:12:46;;;;;;;5.05;1.10;;;29.80;60.10;;;;;;7383595;19;20277;-85
2023/08/21 13:15:17;;;;;;;4.18;1.30;;;29.90;60.90;;;;;;7379026;19;20111;-81
2023/08/21 13:17:46;;;;;;;3.03;1.23;;;29.80;59.60;;;;;;7376749;19;20032;-77
2023/08/21 13:20:15;;;;;;;2.75;1.20;;;29.80;59.50;;;;;;7400631;19;20003;-80
2023/08/21 13:22:53;;;;;;;5.10;1.20;;;29.80;59.70;;;;;;7384322;19;20011;-82
2023/08/21 13:25:29;;;;;;;5.00;1.48;;;29.90;60.60;;;;;;7383925;19;20046;-80
2023/08/21 13:31:16;;;;;;;2.83;1.20;;;30.00;60.60;;;;;;7378598;19;20011;-80